Time;durP1;ratioP1;P1;durP2;ratioP2;P2;SDS_P1;SDS_P2;PMS_P1;PMS_P2;Temp;Humidity;BMP_temperature;BMP_pressure;BME280_temperature;BME280_humidity;BME280_pressure;Samples;Min_cycle;Max_cycle;Signal;HPM_P1;HPM_P2
2023/04/29 00:01:17;;;;;;;;;;;11.60;99.90;;;;;;5058874;28;19925;-66
2023/04/29 00:03:49;;;;;;;;;;;11.60;99.90;;;;;;5061387;28;19929;-66
2023/04/29 00:06:21;;;;;;;;;;;11.70;99.90;;;;;;5049455;28;19982;-66
2023/04/29 00:08:52;;;;;;;;;;;11.70;99.90;;;;;;5054173;28;19970;-66
2023/04/29 00:11:24;;;;;;;;;;;11.80;99.90;;;;;;5042176;28;19924;-66
2023/04/29 00:13:55;;;;;;;;;;;11.80;99.90;;;;;;5054893;28;19950;-66
2023/04/29 00:16:27;;;;;;;;;;;11.80;99.90;;;;;;5055647;28;19925;-66
2023/04/29 00:18:59;;;;;;;;;;;11.70;99.90;;;;;;5040650;28;19925;-66
2023/04/29 00:21:32;;;;;;;;;;;11.80;99.90;;;;;;5064456;28;19929;-66
2023/04/29 00:24:03;;;;;;;;;;;11.80;99.90;;;;;;5065612;28;19978;-66
2023/04/29 00:26:35;;;;;;;;;;;11.80;99.90;;;;;;5063643;28;19929;-66
2023/04/29 00:29:07;;;;;;;;;;;11.80;99.90;;;;;;5053746;28;19925;-66
2023/04/29 00:31:34;;;;;;;;;;;11.90;99.90;;;;;;5041377;28;19925;-66
2023/04/29 00:34:05;;;;;;;;;;;11.90;99.90;;;;;;5054667;28;19956;-66
2023/04/29 00:36:37;;;;;;;;;;;11.90;99.90;;;;;;5055742;28;19931;-66
2023/04/29 00:39:09;;;;;;;;;;;11.90;99.90;;;;;;5055166;28;20381;-66
2023/04/29 00:41:36;;;;;;;;;;;11.90;99.90;;;;;;5054795;28;19991;-66
2023/04/29 00:44:09;;;;;;;;;;;11.90;99.90;;;;;;5054732;28;19925;-66
2023/04/29 00:46:36;;;;;;;;;;;11.90;99.90;;;;;;5054285;28;19929;-66
2023/04/29 00:49:08;;;;;;;;;;;11.90;99.90;;;;;;5045752;28;20308;-66
2023/04/29 00:51:41;;;;;;;;;;;11.90;99.90;;;;;;5062939;28;20462;-66
2023/04/29 00:54:13;;;;;;;;;;;12.00;99.90;;;;;;5067595;28;20301;-66
2023/04/29 00:56:42;;;;;;;;;;;12.00;99.90;;;;;;5054696;28;19928;-65
2023/04/29 00:59:15;;;;;;;;;;;12.00;99.90;;;;;;5054645;28;20397;-66
2023/04/29 01:01:47;;;;;;;;;;;12.00;99.90;;;;;;5054857;28;19931;-66
2023/04/29 01:04:19;;;;;;;;;;;12.00;99.90;;;;;;5022060;28;19936;-66
2023/04/29 01:07:07;;;;;;;;;;;12.00;99.90;;;;;;5058180;28;19933;-66
2023/04/29 01:09:50;;;;;;;;;;;12.00;99.90;;;;;;5046557;28;19925;-66
2023/04/29 01:12:30;;;;;;;;;;;12.10;99.90;;;;;;5044636;28;19929;-66
2023/04/29 01:15:20;;;;;;;;;;;12.00;99.90;;;;;;5058840;28;19929;-66
2023/04/29 01:17:59;;;;;;;;;;;12.00;99.90;;;;;;5044666;28;19925;-66
2023/04/29 01:20:27;;;;;;;;;;;12.00;99.90;;;;;;5053862;28;19936;-66
2023/04/29 01:22:58;;;;;;;;;;;12.00;99.90;;;;;;5048019;28;19929;-66
2023/04/29 01:25:30;;;;;;;;;;;12.00;99.90;;;;;;5052880;28;20344;-66
2023/04/29 01:28:37;;;;;;;;;;;12.00;99.90;;;;;;5049293;28;19924;-66
2023/04/29 01:31:30;;;;;;;;;;;12.00;99.90;;;;;;5036317;28;20019;-66
2023/04/29 01:34:05;;;;;;;;;;;12.00;99.90;;;;;;5042559;28;20359;-66
2023/04/29 01:36:57;;;;;;;;;;;12.00;99.90;;;;;;5034248;28;20298;-66
2023/04/29 01:39:34;;;;;;;;;;;12.20;99.90;;;;;;5057269;28;19925;-66
2023/04/29 01:42:17;;;;;;;;;;;12.20;99.90;;;;;;5047882;28;20027;-66
2023/04/29 01:44:51;;;;;;;;;;;12.20;99.90;;;;;;5049111;28;19929;-66
2023/04/29 01:47:24;;;;;;;;;;;12.30;99.90;;;;;;5053288;28;19939;-66
2023/04/29 01:49:55;;;;;;;;;;;12.30;99.90;;;;;;5037355;28;20389;-66
2023/04/29 01:52:27;;;;;;;;;;;12.20;99.90;;;;;;5052746;28;19978;-66
2023/04/29 01:54:59;;;;;;;;;;;12.30;99.90;;;;;;5051993;28;19981;-66
2023/04/29 01:57:41;;;;;;;;;;;12.30;99.90;;;;;;5044853;28;19924;-66
2023/04/29 02:00:23;;;;;;;;;;;12.30;99.90;;;;;;5052603;28;20331;-65
2023/04/29 02:02:55;;;;;;;;;;;12.30;99.90;;;;;;5039481;28;19929;-65
2023/04/29 02:05:33;;;;;;;;;;;12.20;99.90;;;;;;5037508;28;20416;-65
2023/04/29 02:08:06;;;;;;;;;;;12.30;99.90;;;;;;5049038;28;20400;-65
2023/04/29 02:10:50;;;;;;;;;;;12.30;99.90;;;;;;5053040;28;20311;-65
2023/04/29 02:13:33;;;;;;;;;;;12.30;99.90;;;;;;5038743;28;20303;-66
2023/04/29 02:16:09;;;;;;;;;;;12.30;99.90;;;;;;5052130;28;19935;-66
2023/04/29 02:19:02;;;;;;;;;;;12.30;99.90;;;;;;5033064;28;19954;-66
2023/04/29 02:21:38;;;;;;;;;;;12.30;99.90;;;;;;5042934;28;20428;-66
2023/04/29 02:24:10;;;;;;;;;;;12.30;99.90;;;;;;5024200;28;20355;-66
2023/04/29 02:26:42;;;;;;;;;;;12.40;99.90;;;;;;5038322;28;19932;-66
2023/04/29 02:29:14;;;;;;;;;;;12.40;99.90;;;;;;5048327;28;20400;-66
2023/04/29 02:31:42;;;;;;;;;;;12.40;99.90;;;;;;5052946;28;19935;-66
2023/04/29 02:34:15;;;;;;;;;;;12.40;99.90;;;;;;5070043;28;20333;-66
2023/04/29 02:36:46;;;;;;;;;;;12.40;99.90;;;;;;5036797;28;19931;-66
2023/04/29 02:39:20;;;;;;;;;;;12.40;99.90;;;;;;5048534;28;19971;-66
2023/04/29 02:41:55;;;;;;;;;;;12.40;99.90;;;;;;5045490;28;19929;-66
2023/04/29 02:44:26;;;;;;;;;;;12.40;99.90;;;;;;5042179;28;20466;-66
2023/04/29 02:46:58;;;;;;;;;;;12.40;99.90;;;;;;5058481;28;19925;-66
2023/04/29 02:49:25;;;;;;;;;;;12.40;99.90;;;;;;5035616;28;20019;-66
2023/04/29 02:51:57;;;;;;;;;;;12.50;99.90;;;;;;5054324;28;19970;-66
2023/04/29 02:54:29;;;;;;;;;;;12.50;99.90;;;;;;5049609;28;19940;-66
2023/04/29 02:57:00;;;;;;;;;;;12.40;99.90;;;;;;5033373;28;19978;-66
2023/04/29 02:59:32;;;;;;;;;;;12.40;99.90;;;;;;5050013;28;20316;-66
2023/04/29 03:02:00;;;;;;;;;;;12.30;99.90;;;;;;5062454;28;19956;-65
2023/04/29 03:04:32;;;;;;;;;;;12.30;99.90;;;;;;5051306;28;20308;-65
2023/04/29 03:07:04;;;;;;;;;;;12.30;99.90;;;;;;5050041;28;19928;-66
2023/04/29 03:09:35;;;;;;;;;;;12.20;99.90;;;;;;5041766;28;19975;-65
2023/04/29 03:12:07;;;;;;;;;;;12.10;99.90;;;;;;5051411;28;19925;-66
2023/04/29 03:14:39;;;;;;;;;;;12.00;99.90;;;;;;5051755;28;19929;-66
2023/04/29 03:17:12;;;;;;;;;;;12.00;99.90;;;;;;5052323;28;19935;-65
2023/04/29 03:19:44;;;;;;;;;;;11.90;99.90;;;;;;5053097;28;20385;-66
2023/04/29 03:22:16;;;;;;;;;;;11.90;99.90;;;;;;5068899;28;19924;-65
2023/04/29 03:24:47;;;;;;;;;;;11.90;99.90;;;;;;5037864;28;19928;-65
2023/04/29 03:27:20;;;;;;;;;;;11.80;99.90;;;;;;5032993;28;19936;-65
2023/04/29 03:29:52;;;;;;;;;;;11.70;99.90;;;;;;5040359;28;20342;-66
2023/04/29 03:32:23;;;;;;;;;;;11.70;99.90;;;;;;5041379;28;19925;-66
2023/04/29 03:34:56;;;;;;;;;;;11.70;99.90;;;;;;5057171;28;19974;-66
2023/04/29 03:37:34;;;;;;;;;;;11.70;99.90;;;;;;5032784;28;20442;-66
2023/04/29 03:40:26;;;;;;;;;;;11.60;99.90;;;;;;5036948;28;19925;-66
2023/04/29 03:42:59;;;;;;;;;;;11.70;99.90;;;;;;5021800;28;19925;-65
2023/04/29 03:45:31;;;;;;;;;;;11.70;99.90;;;;;;5037972;28;20310;-66
2023/04/29 03:48:05;;;;;;;;;;;11.60;99.90;;;;;;5055362;28;20393;-66
2023/04/29 03:50:36;;;;;;;;;;;11.70;99.90;;;;;;5049787;28;19951;-66
2023/04/29 03:53:08;;;;;;;;;;;11.70;99.90;;;;;;5045017;28;19925;-66
2023/04/29 03:55:35;;;;;;;;;;;11.70;99.90;;;;;;5049109;28;19959;-65
2023/04/29 03:58:08;;;;;;;;;;;11.70;99.90;;;;;;5062806;28;19932;-66
2023/04/29 04:00:39;;;;;;;;;;;11.70;99.90;;;;;;5058147;28;20464;-66
2023/04/29 04:03:17;;;;;;;;;;;11.70;99.90;;;;;;5051388;28;20019;-66
2023/04/29 04:05:49;;;;;;;;;;;11.80;99.90;;;;;;5050555;28;19931;-66
2023/04/29 04:08:21;;;;;;;;;;;11.80;99.90;;;;;;5055562;28;19928;-66
2023/04/29 04:11:01;;;;;;;;;;;11.70;99.90;;;;;;5055177;28;19924;-65
2023/04/29 04:13:44;;;;;;;;;;;11.80;99.90;;;;;;5055002;28;19932;-66
2023/04/29 04:16:11;;;;;;;;;;;11.80;99.90;;;;;;5044687;28;19925;-66
2023/04/29 04:18:43;;;;;;;;;;;11.80;99.90;;;;;;5064968;28;20482;-65
2023/04/29 04:21:10;;;;;;;;;;;11.90;99.90;;;;;;5054937;28;19960;-65
2023/04/29 04:23:46;;;;;;;;;;;11.80;99.90;;;;;;5055289;28;20340;-65
2023/04/29 04:26:21;;;;;;;;;;;11.90;99.90;;;;;;5036984;28;19932;-65
2023/04/29 04:28:51;;;;;;;;;;;11.90;99.90;;;;;;5073472;28;19925;-65
2023/04/29 04:31:33;;;;;;;;;;;11.90;99.90;;;;;;5055410;28;19925;-65
2023/04/29 04:34:06;;;;;;;;;;;11.90;99.90;;;;;;5054876;28;19925;-65
2023/04/29 04:36:38;;;;;;;;;;;12.00;99.90;;;;;;5054190;28;20475;-65
2023/04/29 04:39:10;;;;;;;;;;;12.00;99.90;;;;;;5046794;28;19967;-65
2023/04/29 04:41:42;;;;;;;;;;;12.00;99.90;;;;;;5046656;28;19925;-65
2023/04/29 04:44:14;;;;;;;;;;;12.00;99.90;;;;;;5049020;28;19937;-66
2023/04/29 04:47:12;;;;;;;;;;;12.00;99.90;;;;;;5065594;28;19928;-66
2023/04/29 04:49:57;;;;;;;;;;;12.00;99.90;;;;;;5049647;28;20012;-65
2023/04/29 04:52:28;;;;;;;;;;;12.00;99.90;;;;;;5054116;28;19929;-66
2023/04/29 04:55:22;;;;;;;;;;;12.10;99.90;;;;;;5050573;28;19928;-65
2023/04/29 04:57:55;;;;;;;;;;;12.10;99.90;;;;;;5047196;28;19932;-63
2023/04/29 05:00:27;;;;;;;;;;;12.10;99.90;;;;;;5037589;28;20487;-63
2023/04/29 05:02:58;;;;;;;;;;;12.20;99.90;;;;;;5053392;28;20381;-63
2023/04/29 05:05:32;;;;;;;;;;;12.20;99.90;;;;;;5044103;28;20309;-64
2023/04/29 05:08:03;;;;;;;;;;;12.20;99.90;;;;;;5044777;28;20404;-63
2023/04/29 05:10:41;;;;;;;;;;;12.20;99.90;;;;;;5050562;28;19964;-63
2023/04/29 05:13:13;;;;;;;;;;;12.20;99.90;;;;;;5046639;28;20363;-63
2023/04/29 05:15:45;;;;;;;;;;;12.20;99.90;;;;;;5044360;28;19936;-63
2023/04/29 05:18:21;;;;;;;;;;;12.20;99.90;;;;;;5060285;28;19936;-63
2023/04/29 05:20:52;;;;;;;;;;;12.30;99.90;;;;;;5046163;28;19975;-63
2023/04/29 05:23:19;;;;;;;;;;;12.30;99.90;;;;;;5051873;28;19957;-62
2023/04/29 05:25:51;;;;;;;;;;;12.40;99.90;;;;;;5047935;28;19932;-63
2023/04/29 05:28:22;;;;;;;;;;;12.40;99.90;;;;;;5051210;28;19925;-63
2023/04/29 05:30:55;;;;;;;;;;;12.40;99.90;;;;;;5041025;28;19971;-63
2023/04/29 05:33:27;;;;;;;;;;;12.40;99.90;;;;;;5035981;28;19925;-63
2023/04/29 05:35:58;;;;;;;;;;;12.50;99.90;;;;;;5054738;28;20020;-63
2023/04/29 05:38:27;;;;;;;;;;;12.50;99.90;;;;;;5046324;28;20448;-63
2023/04/29 05:41:02;;;;;;;;;;;12.50;99.90;;;;;;5050021;28;19928;-64
2023/04/29 05:43:52;;;;;;;;;;;12.50;99.90;;;;;;5060257;28;19931;-63
2023/04/29 05:46:24;;;;;;;;;;;12.60;99.90;;;;;;5047198;28;20027;-64
2023/04/29 05:48:56;;;;;;;;;;;12.60;99.90;;;;;;5053188;28;20296;-64
2023/04/29 05:51:27;;;;;;;;;;;12.70;99.90;;;;;;5047589;28;19928;-64
2023/04/29 05:53:59;;;;;;;;;;;12.70;99.90;;;;;;5029603;28;19929;-65
2023/04/29 05:56:31;;;;;;;;;;;12.80;99.90;;;;;;5042516;28;19925;-66
2023/04/29 05:59:03;;;;;;;;;;;12.80;99.90;;;;;;5043984;28;19925;-66
2023/04/29 06:01:34;;;;;;;;;;;12.80;99.90;;;;;;5043715;28;20414;-66
2023/04/29 06:04:01;;;;;;;;;;;12.80;99.90;;;;;;5046137;28;20384;-67
2023/04/29 06:06:54;;;;;;;;;;;12.90;99.90;;;;;;5047124;28;20007;-65
2023/04/29 06:09:41;;;;;;;;;;;12.90;99.90;;;;;;5061156;28;20013;-66
2023/04/29 06:12:13;;;;;;;;;;;13.00;99.90;;;;;;5045595;28;19925;-63
2023/04/29 06:14:46;;;;;;;;;;;13.00;99.90;;;;;;5036476;28;19925;-63
2023/04/29 06:17:12;;;;;;;;;;;13.10;99.90;;;;;;5044530;28;20431;-65
2023/04/29 06:19:39;;;;;;;;;;;13.10;99.90;;;;;;5047723;28;20414;-66
2023/04/29 06:22:11;;;;;;;;;;;13.20;99.90;;;;;;5052820;28;20461;-66
2023/04/29 06:24:43;;;;;;;;;;;13.20;99.90;;;;;;5042960;28;19928;-63
2023/04/29 06:27:24;;;;;;;;;;;13.20;99.90;;;;;;5036741;28;19929;-64
2023/04/29 06:29:55;;;;;;;;;;;13.20;99.90;;;;;;5040503;28;19939;-63
2023/04/29 06:32:28;;;;;;;;;;;13.20;99.90;;;;;;5043757;28;20403;-63
2023/04/29 06:35:00;;;;;;;;;;;13.20;99.90;;;;;;5063371;28;19928;-63
2023/04/29 06:37:52;;;;;;;;;;;13.20;99.90;;;;;;5040843;28;19928;-63
2023/04/29 06:40:42;;;;;;;;;;;13.30;99.90;;;;;;5066299;28;19931;-63
2023/04/29 06:43:32;;;;;;;;;;;13.30;99.90;;;;;;5055758;28;19931;-63
2023/04/29 06:46:23;;;;;;;;;;;13.30;99.90;;;;;;5064960;28;19931;-63
2023/04/29 06:49:15;;;;;;;;;;;13.40;99.90;;;;;;5065502;28;19925;-64
2023/04/29 06:51:47;;;;;;;;;;;13.50;99.90;;;;;;5037719;28;19925;-64
2023/04/29 06:54:20;;;;;;;;;;;13.60;99.90;;;;;;5046693;28;20333;-64
2023/04/29 06:56:51;;;;;;;;;;;13.60;99.90;;;;;;5042888;28;19987;-64
2023/04/29 06:59:18;;;;;;;;;;;13.70;99.90;;;;;;5050536;28;20292;-63
2023/04/29 07:01:51;;;;;;;;;;;13.70;99.90;;;;;;5050532;28;19932;-63
2023/04/29 07:04:22;;;;;;;;;;;13.70;99.90;;;;;;5038388;28;19931;-63
2023/04/29 07:06:54;;;;;;;;;;;13.80;99.90;;;;;;5047800;28;19924;-63
2023/04/29 07:09:26;;;;;;;;;;;13.70;99.90;;;;;;5049978;28;19936;-63
2023/04/29 07:11:58;;;;;;;;;;;13.70;99.90;;;;;;5048772;28;19975;-63
2023/04/29 07:14:30;;;;;;;;;;;13.70;99.90;;;;;;5068749;28;19978;-63
2023/04/29 07:17:02;;;;;;;;;;;13.70;99.90;;;;;;5056073;28;19924;-63
2023/04/29 07:19:36;;;;;;;;;;;13.80;99.90;;;;;;5049439;28;20030;-64
2023/04/29 07:22:07;;;;;;;;;;;13.90;99.90;;;;;;5055698;28;19928;-63
2023/04/29 07:24:40;;;;;;;;;;;14.00;99.90;;;;;;5055348;28;20296;-64
2023/04/29 07:27:12;;;;;;;;;;;14.10;99.90;;;;;;5051392;28;19955;-63
2023/04/29 07:29:43;;;;;;;;;;;14.20;99.90;;;;;;5040637;28;20403;-63
2023/04/29 07:32:10;;;;;;;;;;;14.30;99.90;;;;;;5057121;28;19932;-63
2023/04/29 07:34:42;;;;;;;;;;;14.30;99.90;;;;;;5057284;28;19925;-63
2023/04/29 07:37:14;;;;;;;;;;;14.30;99.90;;;;;;5050741;28;19929;-63
2023/04/29 07:39:46;;;;;;;;;;;14.30;99.90;;;;;;5062465;28;19929;-63
2023/04/29 07:42:18;;;;;;;;;;;14.30;99.90;;;;;;5045870;28;19955;-63
2023/04/29 07:44:50;;;;;;;;;;;14.50;99.90;;;;;;5047208;28;19935;-63
2023/04/29 07:47:22;;;;;;;;;;;14.60;99.90;;;;;;5055718;28;19924;-64
2023/04/29 07:49:54;;;;;;;;;;;14.80;99.90;;;;;;5042574;28;19931;-63
2023/04/29 07:52:25;;;;;;;;;;;14.90;99.90;;;;;;5058150;28;19948;-63
2023/04/29 07:54:57;;;;;;;;;;;14.90;99.90;;;;;;5037057;28;19940;-63
2023/04/29 07:57:29;;;;;;;;;;;14.90;99.90;;;;;;5073611;28;19924;-63
2023/04/29 08:00:00;;;;;;;;;;;14.80;99.90;;;;;;5056617;28;20865;-63
2023/04/29 08:02:41;;;;;;;;;;;14.80;99.90;;;;;;5056995;28;19924;-63
2023/04/29 08:05:09;;;;;;;;;;;14.90;99.90;;;;;;5043225;28;19925;-63
2023/04/29 08:07:41;;;;;;;;;;;14.80;99.90;;;;;;5054517;28;19964;-63
2023/04/29 08:10:12;;;;;;;;;;;14.80;99.90;;;;;;5031824;28;19925;-63
2023/04/29 08:12:44;;;;;;;;;;;14.90;99.90;;;;;;5050504;28;20386;-63
2023/04/29 08:15:17;;;;;;;;;;;15.00;99.90;;;;;;5049872;28;19933;-63
2023/04/29 08:17:44;;;;;;;;;;;15.00;99.90;;;;;;5053967;28;19932;-63
2023/04/29 08:20:15;;;;;;;;;;;15.00;99.90;;;;;;5020987;28;19929;-62
2023/04/29 08:22:47;;;;;;;;;;;14.80;99.90;;;;;;5054297;28;19929;-62
2023/04/29 08:25:19;;;;;;;;;;;14.90;99.90;;;;;;5066631;28;19978;-63
2023/04/29 08:27:50;;;;;;;;;;;15.00;99.90;;;;;;5066544;28;19929;-63
2023/04/29 08:30:22;;;;;;;;;;;15.10;99.90;;;;;;5064361;28;19929;-63
2023/04/29 08:32:54;;;;;;;;;;;15.10;99.90;;;;;;5062443;28;19924;-63
2023/04/29 08:35:23;;;;;;;;;;;15.10;99.90;;;;;;5053223;28;20218;-63
2023/04/29 08:37:55;;;;;;;;;;;14.90;99.90;;;;;;5065153;28;19924;-62
2023/04/29 08:40:27;;;;;;;;;;;15.00;99.90;;;;;;5055370;28;19929;-63
2023/04/29 08:42:59;;;;;;;;;;;15.20;99.90;;;;;;5073167;28;19973;-63
2023/04/29 08:45:32;;;;;;;;;;;15.30;99.90;;;;;;5071330;28;19929;-63
2023/04/29 08:48:07;;;;;;;;;;;15.50;99.90;;;;;;5068945;28;19928;-63
2023/04/29 08:50:40;;;;;;;;;;;15.40;99.90;;;;;;5067021;28;19935;-63
2023/04/29 08:53:13;;;;;;;;;;;15.30;99.90;;;;;;5062576;28;19925;-63
2023/04/29 08:55:45;;;;;;;;;;;15.30;99.90;;;;;;5064956;28;20396;-63
2023/04/29 08:58:17;;;;;;;;;;;15.30;99.90;;;;;;5065765;28;19948;-63
2023/04/29 09:00:49;;;;;;;;;;;15.50;99.90;;;;;;5057540;28;20028;-63
2023/04/29 09:03:26;;;;;;;;;;;15.70;99.90;;;;;;5071153;28;19954;-63
2023/04/29 09:05:59;;;;;;;;;;;15.80;99.90;;;;;;5055553;28;20300;-63
2023/04/29 09:08:31;;;;;;;;;;;15.80;99.90;;;;;;5070752;28;19987;-62
2023/04/29 09:11:03;;;;;;;;;;;15.60;99.90;;;;;;5068690;28;19979;-63
2023/04/29 09:13:31;;;;;;;;;;;15.40;99.90;;;;;;5066483;28;19937;-63
2023/04/29 09:16:03;;;;;;;;;;;15.30;99.90;;;;;;5064456;28;19979;-63
2023/04/29 09:18:41;;;;;;;;;;;15.30;99.90;;;;;;5062041;28;19986;-63
2023/04/29 09:21:19;;;;;;;;;;;15.40;99.90;;;;;;5049241;28;19929;-63
2023/04/29 09:23:52;;;;;;;;;;;15.40;99.90;;;;;;5056014;28;19925;-63
2023/04/29 09:26:24;;;;;;;;;;;15.50;99.90;;;;;;5055079;28;19952;-63
2023/04/29 09:29:06;;;;;;;;;;;15.80;99.90;;;;;;5053300;28;19925;-63
2023/04/29 09:31:38;;;;;;;;;;;16.00;99.90;;;;;;5053397;28;19925;-63
2023/04/29 09:34:10;;;;;;;;;;;16.20;99.90;;;;;;5068594;28;20450;-63
2023/04/29 09:36:46;;;;;;;;;;;16.40;99.90;;;;;;5058909;28;19956;-62
2023/04/29 09:39:19;;;;;;;;;;;16.60;99.90;;;;;;5061558;28;19996;-64
2023/04/29 09:41:51;;;;;;;;;;;16.50;99.90;;;;;;5063824;28;19924;-63
2023/04/29 09:44:23;;;;;;;;;;;16.40;99.90;;;;;;5059218;28;19970;-63
2023/04/29 09:46:56;;;;;;;;;;;16.30;99.90;;;;;;5057028;28;19925;-63
2023/04/29 09:49:29;;;;;;;;;;;16.00;99.90;;;;;;5054733;28;19978;-63
2023/04/29 09:52:02;;;;;;;;;;;15.80;99.90;;;;;;5053003;28;20515;-62
2023/04/29 09:54:37;;;;;;;;;;;15.70;99.90;;;;;;5054465;28;19978;-63
2023/04/29 09:57:10;;;;;;;;;;;15.80;99.90;;;;;;5068066;28;20314;-62
2023/04/29 09:59:42;;;;;;;;;;;16.00;99.90;;;;;;5041522;28;19925;-63
2023/04/29 10:02:16;;;;;;;;;;;16.20;99.90;;;;;;5058077;28;20312;-63
2023/04/29 10:04:44;;;;;;;;;;;16.20;99.90;;;;;;5063138;28;20350;-63
2023/04/29 10:07:16;;;;;;;;;;;16.20;99.90;;;;;;5034098;28;19924;-63
2023/04/29 10:09:49;;;;;;;;;;;16.20;99.90;;;;;;5056470;28;20401;-63
2023/04/29 10:12:21;;;;;;;;;;;16.20;99.90;;;;;;5051958;28;20313;-63
2023/04/29 10:15:11;;;;;;;;;;;16.20;99.90;;;;;;5052010;28;19925;-63
2023/04/29 10:17:48;;;;;;;;;;;16.20;99.90;;;;;;5053890;28;20028;-63
2023/04/29 10:20:21;;;;;;;;;;;16.10;99.90;;;;;;5053631;28;19925;-63
2023/04/29 10:22:49;;;;;;;;;;;16.10;99.90;;;;;;5064932;28;20446;-62
2023/04/29 10:25:21;;;;;;;;;;;16.10;99.90;;;;;;5052875;28;19929;-63
2023/04/29 10:27:51;;;;;;;;;;;16.20;99.90;;;;;;5060312;28;19924;-63
2023/04/29 10:30:24;;;;;;;;;;;16.30;99.90;;;;;;5049393;28;19925;-63
2023/04/29 10:32:58;;;;;;;;;;;16.50;99.90;;;;;;5056396;28;19979;-63
2023/04/29 10:35:31;;;;;;;;;;;16.80;99.90;;;;;;5054191;28;19929;-63
2023/04/29 10:38:10;;;;;;;;;;;17.00;99.90;;;;;;5050380;28;19925;-63
2023/04/29 10:40:46;;;;;;;;;;;17.10;99.90;;;;;;5066020;28;19924;-63
2023/04/29 10:43:22;;;;;;;;;;;16.90;99.90;;;;;;5056163;28;20484;-63
2023/04/29 10:46:13;;;;;;;;;;;16.70;99.90;;;;;;5035073;28;19925;-62
2023/04/29 10:48:48;;;;;;;;;;;16.60;99.90;;;;;;5060058;28;19928;-63
2023/04/29 10:51:32;;;;;;;;;;;16.70;99.90;;;;;;5063021;28;19928;-62
2023/04/29 10:54:07;;;;;;;;;;;16.90;99.90;;;;;;5057939;28;20019;-62
2023/04/29 10:56:40;;;;;;;;;;;17.10;99.90;;;;;;5067112;28;20025;-63
2023/04/29 10:59:13;;;;;;;;;;;17.10;99.90;;;;;;5069341;28;20125;-63
2023/04/29 11:01:52;;;;;;;;;;;17.00;99.90;;;;;;5051874;28;20412;-63
2023/04/29 11:04:24;;;;;;;;;;;17.00;99.90;;;;;;5058096;28;19958;-62
2023/04/29 11:06:57;;;;;;;;;;;17.10;99.90;;;;;;5066403;28;19986;-63
2023/04/29 11:09:24;;;;;;;;;;;17.10;99.90;;;;;;5064041;28;19933;-63
2023/04/29 11:12:04;;;;;;;;;;;17.00;99.90;;;;;;5062217;28;19929;-63
2023/04/29 11:14:48;;;;;;;;;;;17.00;99.90;;;;;;5060065;28;19925;-63
2023/04/29 11:17:19;;;;;;;;;;;16.90;99.90;;;;;;5048013;28;19924;-63
2023/04/29 11:19:51;;;;;;;;;;;16.90;99.90;;;;;;5055169;28;19987;-63
2023/04/29 11:22:27;;;;;;;;;;;16.90;99.90;;;;;;5052939;28;20034;-63
2023/04/29 11:25:01;;;;;;;;;;;16.90;99.90;;;;;;5051839;28;19925;-63
2023/04/29 11:27:34;;;;;;;;;;;16.90;99.90;;;;;;5036717;28;20284;-62
2023/04/29 11:30:03;;;;;;;;;;;17.10;99.90;;;;;;5055804;28;20432;-63
2023/04/29 11:32:39;;;;;;;;;;;17.10;99.90;;;;;;5034048;28;19925;-63
2023/04/29 11:35:11;;;;;;;;;;;17.20;99.90;;;;;;5060285;28;19940;-63
2023/04/29 11:37:44;;;;;;;;;;;17.30;99.90;;;;;;5062569;28;19932;-63
2023/04/29 11:40:16;;;;;;;;;;;17.20;99.90;;;;;;5064976;28;19932;-63
2023/04/29 11:42:48;;;;;;;;;;;17.10;99.90;;;;;;5055144;28;19935;-63
2023/04/29 11:45:20;;;;;;;;;;;17.30;99.90;;;;;;5051995;28;20312;-63
2023/04/29 11:47:51;;;;;;;;;;;17.40;99.90;;;;;;5051566;28;19929;-62
2023/04/29 11:50:23;;;;;;;;;;;17.50;99.90;;;;;;5036374;28;19933;-62
2023/04/29 11:52:56;;;;;;;;;;;17.70;99.90;;;;;;5055524;28;19987;-63
2023/04/29 11:55:28;;;;;;;;;;;17.80;99.90;;;;;;5057909;28;19929;-63
2023/04/29 11:58:00;;;;;;;;;;;17.90;99.90;;;;;;5044288;28;19932;-62
2023/04/29 12:00:32;;;;;;;;;;;18.00;99.90;;;;;;5061331;28;19932;-63
2023/04/29 12:03:13;;;;;;;;;;;18.10;99.90;;;;;;5061629;28;19929;-62
2023/04/29 12:05:45;;;;;;;;;;;18.00;99.90;;;;;;5049472;28;19929;-62
2023/04/29 12:08:20;;;;;;;;;;;17.90;99.90;;;;;;5056455;28;19932;-63
2023/04/29 12:10:47;;;;;;;;;;;17.90;99.90;;;;;;5050665;28;19925;-63
2023/04/29 12:13:16;;;;;;;;;;;18.10;99.90;;;;;;5055792;28;19924;-62
2023/04/29 12:15:48;;;;;;;;;;;18.10;99.90;;;;;;5069757;28;19974;-63
2023/04/29 12:18:22;;;;;;;;;;;18.00;99.90;;;;;;5067357;28;20451;-62
2023/04/29 12:20:54;;;;;;;;;;;17.70;99.90;;;;;;5055287;28;19933;-63
2023/04/29 12:23:26;;;;;;;;;;;17.70;99.90;;;;;;5063311;28;19925;-62
2023/04/29 12:25:59;;;;;;;;;;;18.00;99.90;;;;;;5061161;28;20325;-62
2023/04/29 12:28:32;;;;;;;;;;;18.10;99.90;;;;;;5049658;28;19925;-63
2023/04/29 12:31:04;;;;;;;;;;;18.30;99.90;;;;;;5055958;28;19925;-62
2023/04/29 12:33:36;;;;;;;;;;;18.50;99.90;;;;;;5073385;28;19924;-62
2023/04/29 12:36:15;;;;;;;;;;;18.60;99.90;;;;;;5072545;28;19997;-63
2023/04/29 12:38:47;;;;;;;;;;;18.50;99.90;;;;;;5069505;28;19925;-63
2023/04/29 12:41:20;;;;;;;;;;;18.50;99.90;;;;;;5067210;28;20328;-63
2023/04/29 12:43:48;;;;;;;;;;;18.50;99.90;;;;;;5065015;28;19935;-63
2023/04/29 12:46:20;;;;;;;;;;;18.40;99.90;;;;;;5053776;28;20400;-63
2023/04/29 12:48:52;;;;;;;;;;;18.20;99.90;;;;;;5060853;28;19928;-62
2023/04/29 12:51:23;;;;;;;;;;;18.20;99.90;;;;;;5058891;28;19933;-62
2023/04/29 12:53:55;;;;;;;;;;;18.20;99.90;;;;;;5055993;28;19925;-63
2023/04/29 12:56:26;;;;;;;;;;;18.30;99.90;;;;;;5054118;28;20337;-63
2023/04/29 12:59:06;;;;;;;;;;;18.40;99.90;;;;;;5055067;28;19932;-62
2023/04/29 13:01:38;;;;;;;;;;;18.40;99.90;;;;;;5057380;28;19932;-62
2023/04/29 13:04:10;;;;;;;;;;;18.50;99.90;;;;;;5059999;28;19928;-63
2023/04/29 13:06:42;;;;;;;;;;;18.60;99.90;;;;;;5044406;28;19931;-62
2023/04/29 13:09:14;;;;;;;;;;;18.80;99.90;;;;;;5047222;28;19933;-65
2023/04/29 13:11:46;;;;;;;;;;;18.90;99.90;;;;;;5065425;28;19928;-65
2023/04/29 13:14:17;;;;;;;;;;;18.70;99.90;;;;;;5065580;28;19925;-65
2023/04/29 13:16:49;;;;;;;;;;;18.50;99.90;;;;;;5053034;28;19979;-64
2023/04/29 13:19:21;;;;;;;;;;;18.50;99.90;;;;;;5035480;28;19925;-64
2023/04/29 13:21:52;;;;;;;;;;;18.50;99.90;;;;;;5053154;28;19932;-65
2023/04/29 13:24:24;;;;;;;;;;;18.50;99.90;;;;;;5061139;28;19929;-65
2023/04/29 13:26:57;;;;;;;;;;;18.80;99.90;;;;;;5066757;28;19932;-65
2023/04/29 13:29:28;;;;;;;;;;;19.00;99.90;;;;;;5052766;28;19925;-65
2023/04/29 13:32:00;;;;;;;;;;;18.70;99.90;;;;;;5062669;28;19978;-65
2023/04/29 13:34:32;;;;;;;;;;;18.60;99.90;;;;;;5066037;28;19928;-65
2023/04/29 13:37:03;;;;;;;;;;;18.60;99.90;;;;;;5067049;28;19929;-65
2023/04/29 13:39:35;;;;;;;;;;;18.80;99.90;;;;;;5054184;28;19978;-65
2023/04/29 13:42:07;;;;;;;;;;;18.90;99.90;;;;;;5071398;28;19924;-65
2023/04/29 13:44:43;;;;;;;;;;;19.10;99.90;;;;;;5054594;28;19924;-65
2023/04/29 13:47:14;;;;;;;;;;;19.10;99.90;;;;;;5055963;28;20324;-65
2023/04/29 13:49:46;;;;;;;;;;;19.20;99.90;;;;;;5058348;28;19998;-65
2023/04/29 13:52:18;;;;;;;;;;;19.30;99.90;;;;;;5061963;28;19924;-65
2023/04/29 13:54:49;;;;;;;;;;;19.40;99.90;;;;;;5061763;28;19928;-65
2023/04/29 13:57:21;;;;;;;;;;;19.30;99.90;;;;;;5059649;28;20512;-65
2023/04/29 13:59:54;;;;;;;;;;;18.90;99.90;;;;;;5054362;28;19928;-65
2023/04/29 14:02:26;;;;;;;;;;;19.00;99.90;;;;;;5055427;28;20396;-65
2023/04/29 14:04:57;;;;;;;;;;;18.90;99.90;;;;;;5053276;28;19936;-64
2023/04/29 14:07:29;;;;;;;;;;;18.80;99.90;;;;;;5034320;28;20312;-65
2023/04/29 14:10:01;;;;;;;;;;;18.80;99.90;;;;;;5048656;28;19924;-65
2023/04/29 14:12:32;;;;;;;;;;;19.10;99.90;;;;;;5067864;28;19974;-65
2023/04/29 14:15:04;;;;;;;;;;;19.20;99.90;;;;;;5065487;28;20332;-65
2023/04/29 14:17:36;;;;;;;;;;;19.10;99.90;;;;;;5063122;28;19928;-64
2023/04/29 14:20:08;;;;;;;;;;;19.30;99.90;;;;;;5063876;28;19928;-65
2023/04/29 14:22:39;;;;;;;;;;;19.60;99.90;;;;;;5059271;28;19929;-65
2023/04/29 14:25:11;;;;;;;;;;;19.60;99.90;;;;;;5068614;28;19928;-65
2023/04/29 14:27:43;;;;;;;;;;;19.50;99.90;;;;;;5053829;28;20393;-65
2023/04/29 14:30:10;;;;;;;;;;;19.40;99.90;;;;;;5054008;28;19951;-65
2023/04/29 14:32:37;;;;;;;;;;;19.00;99.90;;;;;;5054624;28;19925;-65
2023/04/29 14:35:09;;;;;;;;;;;18.90;99.90;;;;;;5049980;28;20281;-65
2023/04/29 14:37:40;;;;;;;;;;;18.90;99.90;;;;;;5058921;28;19948;-65
2023/04/29 14:40:12;;;;;;;;;;;18.70;99.90;;;;;;5058987;28;19932;-64
2023/04/29 14:42:43;;;;;;;;;;;18.70;99.90;;;;;;5048967;28;19929;-65
2023/04/29 14:45:11;;;;;;;;;;;18.70;99.90;;;;;;5059366;28;20689;-65
2023/04/29 14:47:43;;;;;;;;;;;19.10;99.90;;;;;;5059191;28;19933;-65
2023/04/29 14:50:15;;;;;;;;;;;19.20;99.90;;;;;;5054879;28;20027;-65
2023/04/29 14:52:46;;;;;;;;;;;19.20;99.90;;;;;;5055070;28;19975;-66